createdAt,value
2023-11-30T00:00:12.550Z,19.08
2023-11-30T00:02:39.081Z,19.05
2023-11-30T00:05:08.332Z,19.04
2023-11-30T00:07:34.987Z,19.04
2023-11-30T00:10:01.955Z,19.02
2023-11-30T00:12:28.548Z,19.02
2023-11-30T00:14:55.201Z,19.00
2023-11-30T00:17:21.749Z,19.00
2023-11-30T00:19:48.548Z,18.98
2023-11-30T00:22:15.096Z,18.96
2023-11-30T00:24:41.600Z,18.97
2023-11-30T00:27:08.145Z,18.98
2023-11-30T00:29:34.709Z,18.95
2023-11-30T00:32:02.547Z,18.96
2023-11-30T00:34:29.074Z,18.94
2023-11-30T00:36:55.588Z,18.92
2023-11-30T00:39:22.251Z,18.93
2023-11-30T00:41:49.010Z,18.95
2023-11-30T00:44:16.350Z,18.97
2023-11-30T00:46:43.027Z,18.96
2023-11-30T00:49:09.897Z,18.95
2023-11-30T00:51:36.532Z,18.95
2023-11-30T00:54:03.274Z,18.94
2023-11-30T00:56:29.809Z,18.93
2023-11-30T00:58:56.370Z,18.93
2023-11-30T01:01:22.919Z,18.92
2023-11-30T01:03:49.530Z,18.90
2023-11-30T01:06:16.152Z,18.89
2023-11-30T01:08:42.718Z,18.89
2023-11-30T01:11:09.225Z,18.87
2023-11-30T01:13:35.747Z,18.89
2023-11-30T01:16:02.338Z,18.90
2023-11-30T01:18:29.016Z,18.91
2023-11-30T01:20:55.790Z,18.92
2023-11-30T01:23:22.595Z,18.91
2023-11-30T01:25:49.492Z,18.91
2023-11-30T01:28:16.019Z,18.87
2023-11-30T01:30:42.503Z,18.88
2023-11-30T01:33:09.160Z,18.87
2023-11-30T01:35:35.675Z,18.87
2023-11-30T01:38:03.711Z,18.85
2023-11-30T01:40:30.263Z,18.84
2023-11-30T01:42:56.871Z,18.84
2023-11-30T01:45:23.444Z,18.82
2023-11-30T01:47:50.089Z,18.82
2023-11-30T01:50:16.638Z,18.85
2023-11-30T01:52:43.204Z,18.87
2023-11-30T01:55:09.745Z,18.88
2023-11-30T01:57:36.377Z,18.89
2023-11-30T02:00:05.580Z,18.89
2023-11-30T02:02:38.245Z,18.88
2023-11-30T02:05:05.028Z,18.87
2023-11-30T02:07:31.707Z,18.85
2023-11-30T02:09:58.223Z,18.86
2023-11-30T02:12:24.810Z,18.86
2023-11-30T02:14:51.460Z,18.85
2023-11-30T02:17:17.951Z,18.84
2023-11-30T02:19:44.740Z,18.83
2023-11-30T02:22:11.286Z,18.81
2023-11-30T02:24:37.777Z,18.80
2023-11-30T02:27:04.442Z,18.81
2023-11-30T02:29:31.230Z,18.81
2023-11-30T02:31:58.700Z,18.79
2023-11-30T02:34:25.321Z,18.79
2023-11-30T02:36:53.044Z,18.79
2023-11-30T02:39:20.257Z,18.81
2023-11-30T02:41:46.829Z,18.84
2023-11-30T02:44:13.327Z,18.85
2023-11-30T02:46:40.991Z,18.88
2023-11-30T02:49:07.503Z,18.88
2023-11-30T02:51:34.488Z,18.89
2023-11-30T02:54:01.257Z,18.86
2023-11-30T02:56:27.816Z,18.86
2023-11-30T02:58:55.464Z,18.87
2023-11-30T03:01:22.022Z,18.85
2023-11-30T03:03:48.622Z,18.83
2023-11-30T03:06:16.144Z,18.82
2023-11-30T03:08:43.014Z,18.81
2023-11-30T03:11:09.559Z,18.81
2023-11-30T03:13:36.652Z,18.80
2023-11-30T03:16:03.468Z,18.78
2023-11-30T03:18:30.041Z,18.80
2023-11-30T03:20:56.671Z,18.80
2023-11-30T03:23:23.240Z,18.80
2023-11-30T03:25:49.770Z,18.80
2023-11-30T03:28:16.307Z,18.79
2023-11-30T03:30:43.172Z,18.78
2023-11-30T03:33:09.809Z,18.78
2023-11-30T03:35:36.383Z,18.79
2023-11-30T03:38:03.837Z,18.80
2023-11-30T03:40:30.340Z,18.80
2023-11-30T03:42:56.876Z,18.79
2023-11-30T03:45:23.408Z,18.77
2023-11-30T03:47:50.003Z,18.75
2023-11-30T03:50:16.522Z,18.76
2023-11-30T03:52:43.465Z,18.78
2023-11-30T03:55:09.969Z,18.80
2023-11-30T03:57:36.852Z,18.81
2023-11-30T04:00:04.634Z,18.82
2023-11-30T04:02:32.099Z,18.79
2023-11-30T04:04:58.721Z,18.80
2023-11-30T04:07:30.573Z,18.77
2023-11-30T04:09:57.205Z,18.75
2023-11-30T04:12:23.746Z,18.74
2023-11-30T04:14:50.326Z,18.74
2023-11-30T04:17:16.914Z,18.73
2023-11-30T04:19:43.501Z,18.72
2023-11-30T04:22:10.023Z,18.71
2023-11-30T04:24:36.587Z,18.73
2023-11-30T04:27:04.473Z,18.77
2023-11-30T04:29:31.244Z,18.77
2023-11-30T04:31:57.937Z,18.79
2023-11-30T04:34:24.606Z,18.79
2023-11-30T04:36:51.327Z,18.78
2023-11-30T04:39:19.073Z,18.77
2023-11-30T04:41:45.606Z,18.76
2023-11-30T04:44:12.202Z,18.74
2023-11-30T04:46:38.685Z,18.73
2023-11-30T04:49:05.290Z,18.73
2023-11-30T04:51:31.946Z,18.69
2023-11-30T04:53:58.527Z,18.69
2023-11-30T04:56:25.217Z,18.70
2023-11-30T04:58:51.711Z,18.69
2023-11-30T05:01:18.221Z,18.70
2023-11-30T05:03:45.772Z,18.71
2023-11-30T05:06:12.627Z,18.72
2023-11-30T05:08:39.143Z,18.75
2023-11-30T05:11:05.874Z,18.72
2023-11-30T05:13:32.398Z,18.72
2023-11-30T05:16:00.315Z,18.71
2023-11-30T05:18:26.869Z,18.70
2023-11-30T05:20:53.392Z,18.70
2023-11-30T05:23:19.934Z,18.67
2023-11-30T05:25:47.058Z,18.67
2023-11-30T05:28:13.621Z,18.68
2023-11-30T05:30:40.144Z,18.68
2023-11-30T05:33:07.185Z,18.67
2023-11-30T05:35:35.965Z,18.66
2023-11-30T05:38:04.089Z,18.68
2023-11-30T05:40:30.644Z,18.70
2023-11-30T05:42:57.136Z,18.71
2023-11-30T05:45:23.758Z,18.71
2023-11-30T05:47:50.273Z,18.69
2023-11-30T05:50:16.777Z,18.72
2023-11-30T05:52:43.312Z,18.72
2023-11-30T05:55:09.806Z,18.68
2023-11-30T05:57:36.960Z,18.66
2023-11-30T06:00:04.895Z,18.67
2023-11-30T06:02:39.040Z,18.64
2023-11-30T06:05:06.268Z,18.63
2023-11-30T06:07:32.902Z,18.64
2023-11-30T06:09:59.370Z,18.64
2023-11-30T06:12:25.954Z,18.64
2023-11-30T06:14:52.454Z,18.65
2023-11-30T06:17:18.946Z,18.67
2023-11-30T06:19:46.261Z,18.69
2023-11-30T06:22:14.002Z,18.68
2023-11-30T06:24:40.471Z,18.67
2023-11-30T06:27:08.383Z,18.69
2023-11-30T06:29:34.947Z,18.68
2023-11-30T06:32:01.541Z,18.66
2023-11-30T06:34:29.634Z,18.65
2023-11-30T06:36:56.754Z,18.66
2023-11-30T06:39:23.309Z,18.65
2023-11-30T06:41:52.345Z,18.65
2023-11-30T06:44:21.262Z,18.64
2023-11-30T06:46:47.828Z,18.63
2023-11-30T06:49:14.373Z,18.63
2023-11-30T06:51:40.943Z,18.63
2023-11-30T06:54:07.465Z,18.64
2023-11-30T06:56:33.971Z,18.62
2023-11-30T06:59:00.544Z,18.73
2023-11-30T07:01:27.352Z,18.67
2023-11-30T07:03:55.465Z,18.64
2023-11-30T07:06:22.827Z,18.70
2023-11-30T07:08:49.460Z,18.69
2023-11-30T07:11:15.960Z,18.71
2023-11-30T07:13:42.464Z,18.76
2023-11-30T07:16:09.807Z,18.81
2023-11-30T07:18:36.411Z,18.83
2023-11-30T07:21:04.170Z,18.86
2023-11-30T07:23:30.993Z,18.85
2023-11-30T07:25:59.686Z,18.86
2023-11-30T07:28:27.187Z,18.87
2023-11-30T07:30:53.716Z,18.86
2023-11-30T07:33:20.192Z,18.86
2023-11-30T07:35:46.710Z,18.87
2023-11-30T07:38:13.390Z,18.87
2023-11-30T07:40:39.888Z,18.86
2023-11-30T07:43:06.474Z,18.84
2023-11-30T07:45:33.258Z,18.84
2023-11-30T07:48:00.596Z,18.86
2023-11-30T07:50:28.623Z,18.85
2023-11-30T07:52:55.383Z,18.87
2023-11-30T07:55:22.025Z,18.86
2023-11-30T07:57:49.545Z,18.86
2023-11-30T08:00:16.695Z,18.87
2023-11-30T08:02:43.675Z,18.88
2023-11-30T08:05:10.319Z,18.95
2023-11-30T08:07:36.998Z,19.00
2023-11-30T08:10:06.180Z,19.04
2023-11-30T08:12:32.939Z,19.07
2023-11-30T08:14:59.519Z,19.08
2023-11-30T08:17:26.319Z,19.07
2023-11-30T08:19:53.033Z,19.05
2023-11-30T08:22:19.643Z,19.05
2023-11-30T08:24:46.226Z,19.07
2023-11-30T08:27:12.897Z,19.07
2023-11-30T08:29:39.629Z,19.05
2023-11-30T08:32:06.743Z,19.03
2023-11-30T08:34:33.293Z,19.16
2023-11-30T08:37:01.026Z,19.03
2023-11-30T08:39:29.740Z,19.02
2023-11-30T08:41:56.441Z,19.00
2023-11-30T08:44:25.875Z,19.02
2023-11-30T08:46:53.347Z,19.02
2023-11-30T08:49:20.077Z,19.18
2023-11-30T08:51:46.644Z,19.08
2023-11-30T08:54:13.240Z,19.04
2023-11-30T08:56:39.860Z,19.02
2023-11-30T08:59:06.436Z,19.04
2023-11-30T09:01:33.960Z,19.04
2023-11-30T09:04:04.187Z,19.09
2023-11-30T09:06:31.002Z,19.22
2023-11-30T09:08:57.597Z,19.19
2023-11-30T09:11:24.127Z,19.14
2023-11-30T09:13:50.645Z,19.24
2023-11-30T09:16:17.223Z,19.23
2023-11-30T09:18:44.396Z,19.23
2023-11-30T09:21:11.070Z,19.26
2023-11-30T09:23:37.614Z,19.22
2023-11-30T09:26:08.003Z,19.20
2023-11-30T09:28:34.957Z,19.18
2023-11-30T09:31:05.207Z,19.17
2023-11-30T09:33:31.890Z,19.22
2023-11-30T09:35:58.862Z,19.31
2023-11-30T09:38:25.647Z,19.22
2023-11-30T09:40:55.621Z,19.19
2023-11-30T09:43:22.096Z,19.27
2023-11-30T09:45:49.150Z,19.32
2023-11-30T09:48:15.819Z,19.21
2023-11-30T09:50:42.435Z,19.19
2023-11-30T09:53:09.762Z,19.38
2023-11-30T09:55:36.444Z,19.28
2023-11-30T09:58:04.936Z,19.22
2023-11-30T10:00:31.762Z,19.18
2023-11-30T10:03:01.455Z,19.20
2023-11-30T10:05:29.681Z,19.19
2023-11-30T10:07:59.712Z,19.24
2023-11-30T10:10:26.615Z,19.27
2023-11-30T10:12:56.124Z,19.29
2023-11-30T10:15:23.843Z,19.30
2023-11-30T10:17:50.780Z,19.25
2023-11-30T10:20:18.599Z,19.19
2023-11-30T10:22:45.122Z,19.18
2023-11-30T10:25:11.663Z,19.16
2023-11-30T10:27:38.289Z,19.17
2023-11-30T10:30:06.042Z,19.15
2023-11-30T10:32:33.666Z,19.13
2023-11-30T10:35:00.690Z,19.09
2023-11-30T10:37:27.407Z,19.09
2023-11-30T10:40:12.935Z,19.07
2023-11-30T10:42:43.078Z,19.05
2023-11-30T10:45:09.883Z,19.01
2023-11-30T10:47:36.614Z,19.02
2023-11-30T10:50:07.027Z,19.03
2023-11-30T10:52:34.019Z,19.02
2023-11-30T10:55:13.751Z,19.00
2023-11-30T10:57:47.576Z,19.01
2023-11-30T11:00:15.479Z,18.99
2023-11-30T11:02:43.657Z,18.99
2023-11-30T11:05:16.935Z,19.00
2023-11-30T11:07:47.147Z,19.00
2023-11-30T11:10:29.548Z,19.03
2023-11-30T11:13:02.407Z,19.01
2023-11-30T11:15:29.757Z,19.01
2023-11-30T11:18:05.113Z,19.01
2023-11-30T11:20:32.896Z,19.00
2023-11-30T11:23:05.480Z,18.99
2023-11-30T11:25:37.755Z,18.98
2023-11-30T11:28:04.456Z,18.89
2023-11-30T11:30:31.017Z,18.84
2023-11-30T11:33:01.728Z,18.87
2023-11-30T11:35:28.379Z,18.88
2023-11-30T11:38:01.372Z,18.95
2023-11-30T11:40:28.119Z,18.93
2023-11-30T11:42:55.488Z,18.94
2023-11-30T11:45:22.342Z,18.96
2023-11-30T11:47:49.045Z,18.95
2023-11-30T11:50:16.082Z,18.98
2023-11-30T11:52:42.642Z,18.97
2023-11-30T11:55:10.954Z,18.96
2023-11-30T11:57:42.225Z,18.96
2023-11-30T12:00:17.651Z,18.95
2023-11-30T12:02:44.935Z,18.95
2023-11-30T12:05:15.149Z,18.95
2023-11-30T12:07:55.301Z,19.01
2023-11-30T12:10:29.738Z,18.98
2023-11-30T12:12:57.365Z,18.96
2023-11-30T12:15:23.975Z,19.00
2023-11-30T12:17:50.601Z,18.99
2023-11-30T12:20:19.759Z,18.99
2023-11-30T12:22:46.681Z,19.00
2023-11-30T12:25:13.362Z,19.02
2023-11-30T12:27:40.008Z,19.02
2023-11-30T12:30:07.398Z,19.01
2023-11-30T12:32:35.266Z,19.02
2023-11-30T12:35:04.080Z,19.04
2023-11-30T12:37:30.705Z,19.02
2023-11-30T12:39:57.319Z,19.03
2023-11-30T12:42:25.184Z,19.02
2023-11-30T12:44:51.785Z,19.01
2023-11-30T12:47:18.331Z,19.00
2023-11-30T12:49:45.174Z,19.01
2023-11-30T12:52:11.641Z,19.00
2023-11-30T12:54:38.503Z,18.98
2023-11-30T12:57:05.428Z,18.99
2023-11-30T12:59:32.128Z,19.01
2023-11-30T13:01:58.695Z,18.98
2023-11-30T13:04:25.421Z,18.97
2023-11-30T13:06:51.979Z,18.96
2023-11-30T13:09:18.871Z,18.95
2023-11-30T13:11:46.175Z,18.97
2023-11-30T13:14:13.312Z,18.97
2023-11-30T13:16:39.862Z,18.98
2023-11-30T13:19:06.748Z,18.97
2023-11-30T13:21:33.409Z,18.95
2023-11-30T13:24:00.042Z,18.96
2023-11-30T13:26:26.600Z,18.95
2023-11-30T13:28:53.110Z,18.96
2023-11-30T13:31:20.323Z,18.98
2023-11-30T13:33:46.889Z,18.95
2023-11-30T13:36:13.495Z,18.98
2023-11-30T13:38:41.696Z,18.98
2023-11-30T13:41:08.356Z,18.97
2023-11-30T13:43:34.854Z,18.95
2023-11-30T13:46:01.331Z,18.94
2023-11-30T13:48:27.910Z,18.94
2023-11-30T13:50:59.937Z,18.92
2023-11-30T13:53:29.323Z,18.92
2023-11-30T13:55:57.576Z,18.95
2023-11-30T13:58:24.073Z,18.93
2023-11-30T14:00:50.713Z,18.92
2023-11-30T14:03:17.666Z,18.91
2023-11-30T14:05:44.732Z,18.92
2023-11-30T14:08:14.180Z,18.92
2023-11-30T14:10:40.685Z,18.90
2023-11-30T14:13:08.314Z,18.89
2023-11-30T14:15:34.883Z,18.87
2023-11-30T14:18:01.586Z,18.87
2023-11-30T14:20:28.660Z,18.88
2023-11-30T14:22:55.602Z,18.87
2023-11-30T14:25:22.075Z,18.88
2023-11-30T14:27:49.150Z,18.89
2023-11-30T14:30:15.840Z,18.88
2023-11-30T14:32:42.454Z,18.88
2023-11-30T14:35:09.217Z,18.86
2023-11-30T14:37:35.825Z,18.85
2023-11-30T14:40:02.915Z,18.86
2023-11-30T14:42:29.528Z,18.86
2023-11-30T14:44:56.136Z,18.84
2023-11-30T14:47:26.697Z,18.84
2023-11-30T14:49:54.700Z,18.82
2023-11-30T14:52:21.311Z,18.82
2023-11-30T14:54:52.840Z,18.81
2023-11-30T14:57:20.276Z,18.84
2023-11-30T14:59:48.063Z,18.68
2023-11-30T15:02:15.168Z,18.47
2023-11-30T15:04:41.927Z,18.55
2023-11-30T15:07:08.891Z,18.63
2023-11-30T15:09:35.470Z,18.67
2023-11-30T15:12:02.027Z,18.72
2023-11-30T15:14:28.541Z,18.73
2023-11-30T15:16:55.102Z,18.76
2023-11-30T15:19:21.769Z,18.78
2023-11-30T15:21:48.502Z,18.78
2023-11-30T15:24:15.053Z,18.77
2023-11-30T15:26:41.550Z,18.80
2023-11-30T15:29:08.138Z,18.81
2023-11-30T15:31:34.776Z,18.81
2023-11-30T15:34:01.437Z,18.80
2023-11-30T15:36:28.049Z,18.82
2023-11-30T15:38:54.672Z,18.81
2023-11-30T15:41:21.128Z,18.84
2023-11-30T15:43:47.660Z,18.84
2023-11-30T15:46:14.177Z,18.84
2023-11-30T15:48:40.887Z,18.84
2023-11-30T15:51:09.563Z,18.83
2023-11-30T15:53:37.960Z,18.83
2023-11-30T15:56:04.760Z,18.84
2023-11-30T15:58:31.251Z,18.80
2023-11-30T16:00:59.989Z,18.82
2023-11-30T16:03:26.688Z,18.79
2023-11-30T16:05:53.251Z,18.82
2023-11-30T16:08:19.881Z,18.83
2023-11-30T16:10:46.397Z,18.82
2023-11-30T16:13:13.096Z,18.83
2023-11-30T16:15:39.665Z,18.82
2023-11-30T16:18:06.286Z,18.87
2023-11-30T16:20:32.800Z,18.91
2023-11-30T16:23:01.547Z,18.95
2023-11-30T16:25:28.195Z,18.95
2023-11-30T16:27:54.751Z,18.97
2023-11-30T16:30:22.575Z,18.99
2023-11-30T16:32:49.797Z,19.05
2023-11-30T16:35:16.350Z,19.03
2023-11-30T16:37:42.900Z,19.07
2023-11-30T16:40:11.451Z,19.09
2023-11-30T16:42:38.250Z,19.11
2023-11-30T16:45:07.076Z,19.11
2023-11-30T16:47:33.825Z,19.11
2023-11-30T16:50:01.335Z,19.09
2023-11-30T16:52:29.782Z,19.10
2023-11-30T16:54:56.422Z,19.09
2023-11-30T16:57:22.966Z,19.09
2023-11-30T16:59:49.443Z,19.10
2023-11-30T17:02:16.100Z,19.12
2023-11-30T17:04:43.784Z,19.16
2023-11-30T17:07:10.286Z,19.15
2023-11-30T17:09:40.044Z,19.12
2023-11-30T17:12:07.033Z,19.19
2023-11-30T17:14:33.537Z,19.28
2023-11-30T17:17:02.936Z,19.32
2023-11-30T17:19:29.500Z,19.37
2023-11-30T17:21:56.055Z,19.45
2023-11-30T17:24:22.636Z,19.49
2023-11-30T17:26:53.411Z,19.56
2023-11-30T17:29:20.123Z,19.62
2023-11-30T17:31:47.541Z,19.77
2023-11-30T17:34:14.909Z,19.70
2023-11-30T17:36:44.649Z,19.67
2023-11-30T17:39:16.462Z,19.72
2023-11-30T17:41:45.071Z,19.74
2023-11-30T17:44:11.686Z,19.96
2023-11-30T17:46:39.506Z,19.79
2023-11-30T17:49:06.686Z,19.59
2023-11-30T17:51:33.835Z,19.51
2023-11-30T17:54:00.377Z,19.47
2023-11-30T17:56:26.842Z,19.51
2023-11-30T17:58:53.368Z,19.43
2023-11-30T18:01:19.900Z,19.37
2023-11-30T18:03:47.572Z,19.36
2023-11-30T18:06:14.150Z,19.30
2023-11-30T18:08:40.648Z,19.26
2023-11-30T18:11:07.548Z,19.24
2023-11-30T18:13:34.065Z,19.22
2023-11-30T18:16:03.038Z,19.21
2023-11-30T18:18:30.563Z,19.19
2023-11-30T18:20:57.120Z,19.21
2023-11-30T18:23:23.676Z,19.24
2023-11-30T18:25:50.489Z,19.30
2023-11-30T18:28:17.044Z,19.31
2023-11-30T18:30:43.554Z,19.33
2023-11-30T18:33:11.260Z,19.31
2023-11-30T18:35:40.839Z,19.32
2023-11-30T18:38:08.089Z,19.28
2023-11-30T18:40:34.722Z,19.36
2023-11-30T18:43:01.367Z,19.32
2023-11-30T18:45:28.102Z,19.28
2023-11-30T18:47:54.982Z,19.32
2023-11-30T18:50:21.562Z,19.40
2023-11-30T18:52:49.755Z,19.47
2023-11-30T18:55:16.328Z,19.51
2023-11-30T18:57:42.943Z,19.45
2023-11-30T19:00:10.514Z,19.48
2023-11-30T19:02:37.238Z,19.44
2023-11-30T19:05:06.111Z,19.53
2023-11-30T19:07:34.476Z,19.58
2023-11-30T19:10:01.164Z,19.61
2023-11-30T19:12:27.751Z,19.63
2023-11-30T19:14:54.268Z,19.66
2023-11-30T19:17:20.887Z,19.71
2023-11-30T19:19:47.713Z,19.75
2023-11-30T19:22:14.365Z,19.80
2023-11-30T19:24:42.149Z,19.82
2023-11-30T19:27:08.699Z,19.81
2023-11-30T19:29:36.486Z,19.76
2023-11-30T19:32:03.235Z,19.69
2023-11-30T19:34:29.714Z,19.63
2023-11-30T19:36:56.622Z,19.60
2023-11-30T19:39:23.359Z,19.56
2023-11-30T19:41:49.933Z,19.51
2023-11-30T19:44:17.154Z,19.46
2023-11-30T19:46:48.115Z,19.48
2023-11-30T19:49:17.736Z,19.49
2023-11-30T19:51:44.302Z,19.50
2023-11-30T19:54:10.893Z,19.50
2023-11-30T19:56:39.344Z,19.48
2023-11-30T19:59:05.965Z,19.47
2023-11-30T20:01:32.925Z,19.52
2023-11-30T20:03:59.696Z,19.39
2023-11-30T20:06:26.543Z,19.17
2023-11-30T20:08:53.078Z,19.04
2023-11-30T20:11:20.730Z,19.03
2023-11-30T20:13:47.295Z,19.02
2023-11-30T20:16:14.817Z,19.17
2023-11-30T20:18:42.067Z,19.36
2023-11-30T20:21:19.155Z,19.59
2023-11-30T20:23:45.955Z,19.68
2023-11-30T20:26:12.557Z,19.74
2023-11-30T20:28:39.060Z,19.85
2023-11-30T20:31:05.942Z,19.84
2023-11-30T20:33:32.555Z,19.84
2023-11-30T20:35:59.127Z,19.85
2023-11-30T20:38:26.862Z,19.90
2023-11-30T20:40:53.363Z,19.93
2023-11-30T20:43:20.152Z,19.98
2023-11-30T20:45:46.684Z,20.00
2023-11-30T20:48:13.868Z,20.03
2023-11-30T20:50:40.415Z,20.06
2023-11-30T20:53:07.960Z,20.10
2023-11-30T20:55:35.342Z,19.83
2023-11-30T20:58:01.899Z,19.73
2023-11-30T21:00:28.467Z,19.67
2023-11-30T21:02:55.343Z,19.78
2023-11-30T21:05:23.186Z,19.86
2023-11-30T21:07:49.723Z,19.89
2023-11-30T21:10:16.873Z,19.93
2023-11-30T21:12:43.503Z,19.97
2023-11-30T21:15:10.566Z,19.89
2023-11-30T21:17:37.192Z,19.93
2023-11-30T21:20:04.887Z,19.97
2023-11-30T21:22:31.532Z,20.00
2023-11-30T21:24:58.273Z,20.06
2023-11-30T21:27:24.809Z,20.12
2023-11-30T21:29:51.386Z,20.17
2023-11-30T21:32:17.909Z,20.20
2023-11-30T21:34:44.533Z,20.29
2023-11-30T21:37:11.077Z,20.32
2023-11-30T21:39:37.605Z,20.29
2023-11-30T21:42:04.230Z,20.29
2023-11-30T21:44:30.724Z,20.33
2023-11-30T21:46:57.225Z,20.36
2023-11-30T21:49:23.844Z,20.36
2023-11-30T21:51:50.368Z,20.38
2023-11-30T21:54:16.918Z,20.35
2023-11-30T21:56:43.510Z,20.39
2023-11-30T21:59:09.996Z,20.39
2023-11-30T22:01:37.096Z,20.42
2023-11-30T22:04:04.982Z,20.44
2023-11-30T22:06:32.024Z,20.56
2023-11-30T22:08:59.142Z,20.53
2023-11-30T22:11:26.329Z,20.48
2023-11-30T22:13:53.496Z,20.48
2023-11-30T22:16:26.438Z,20.46
2023-11-30T22:18:59.948Z,20.50
2023-11-30T22:21:27.125Z,20.54
2023-11-30T22:23:53.962Z,20.54
2023-11-30T22:26:20.969Z,20.48
2023-11-30T22:28:50.196Z,20.52
2023-11-30T22:31:22.374Z,20.55
2023-11-30T22:33:49.475Z,20.59
2023-11-30T22:36:16.327Z,20.61
2023-11-30T22:38:46.198Z,20.61
2023-11-30T22:41:14.574Z,20.60
2023-11-30T22:43:41.740Z,20.60
2023-11-30T22:46:18.863Z,20.60
2023-11-30T22:48:47.267Z,20.60
2023-11-30T22:51:14.335Z,20.35
2023-11-30T22:53:41.210Z,20.25
2023-11-30T22:56:08.525Z,20.14
2023-11-30T22:58:35.408Z,20.08
2023-11-30T23:01:02.625Z,19.96
2023-11-30T23:03:29.780Z,19.94
2023-11-30T23:05:56.896Z,19.91
2023-11-30T23:08:23.640Z,19.89
2023-11-30T23:10:50.515Z,19.80
2023-11-30T23:13:17.292Z,19.76
2023-11-30T23:15:44.608Z,19.68
2023-11-30T23:18:11.455Z,19.66
2023-11-30T23:20:38.333Z,19.68
2023-11-30T23:23:05.136Z,19.62
2023-11-30T23:25:31.951Z,19.58
2023-11-30T23:28:00.766Z,19.57
2023-11-30T23:30:28.037Z,19.55
2023-11-30T23:32:55.897Z,19.49
2023-11-30T23:35:22.781Z,19.48
2023-11-30T23:37:49.661Z,19.45
2023-11-30T23:40:16.551Z,19.37
2023-11-30T23:42:43.463Z,19.30
2023-11-30T23:45:10.868Z,19.27
2023-11-30T23:47:38.422Z,19.26
2023-11-30T23:50:05.928Z,19.28
2023-11-30T23:52:32.516Z,19.29
2023-11-30T23:54:59.141Z,19.30
2023-11-30T23:57:25.745Z,19.30
2023-11-30T23:59:52.379Z,19.29
